Latest Coastal Weather Observations for Cato Island

IDQ60701

Issued at 12:01 am EST Saturday 31 January 2015 (issued every 10 minutes, with the page automatically refreshed every 10 minutes)

About coastal observations | Map of coastal stations | Coastal observations for QLD | Marine services | Other Formats
Station Details ID: 200601 Name: CATO ISLAND Lat: -23.25 Lon: 155.54 Height: 6.3 m
Data from the previous 72 hours. | See also: Recent months for locations in Queensland
Date/Time
EST
Temp

°C
Wind Pressure Rain
since 9am
mm
Weather Cloud Vis
km
Sea
Height
m
Swell
Dir
 
Speed
knots
Gust
knots
hPa Trend Height
m
Period
s
Dir
31/12:00am 26.3 SE 20 23 1006.3 - - - - - - - - -
 
Date/Time
EST
Temp

°C
Wind Pressure Rain
since 9am
mm
Weather Cloud Vis
km
Sea
Height
m
Swell
Dir
 
Speed
knots
Gust
knots
hPa Trend Height
m
Period
s
Dir
30/11:30pm 26.3 SE 21 25 1006.6 - - - - - - - - -
30/11:00pm 26.5 SE 21 25 1006.7 - - - - - - - - -
30/10:30pm 26.5 SE 20 23 1006.9 - - - - - - - - -
30/10:00pm 26.5 SE 20 25 1007.3 - - - - - - - - -
30/09:30pm 26.6 SE 21 25 1007.1 - - - - - - - - -
30/09:00pm 26.7 SE 21 25 1007.0 - - - - - - - - -
30/08:30pm 26.7 SE 22 25 1006.7 - - - - - - - - -
30/08:00pm 26.6 SE 22 25 1006.8 - - - - - - - - -
30/07:30pm 26.5 SE 21 25 1006.5 - - - - - - - - -
30/07:00pm 26.5 SE 20 24 1006.4 - - - - - - - - -
30/06:30pm 26.6 SE 21 25 1006.2 - - - - - - - - -
30/06:00pm 26.8 SE 21 24 1006.1 - - - - - - - - -
30/05:30pm 26.7 SE 21 24 1005.5 - - - - - - - - -
30/05:00pm 27.1 SE 20 24 1005.2 - - - - - - - - -
30/04:30pm 26.9 SSE 20 24 1004.8 - - - - - - - - -
30/04:00pm 26.8 SE 21 25 1004.7 - - - - - - - - -
30/03:30pm 27.1 SE 20 23 1004.5 - - - - - - - - -
30/03:00pm 27.3 SE 20 23 1004.6 - - - - - - - - -
30/02:30pm 27.2 SE 20 23 1004.7 - - - - - - - - -
30/02:00pm 27.3 SE 19 22 1004.9 - - - - - - - - -
30/01:30pm 27.3 SE 19 22 1005.0 - - - - - - - - -
30/01:00pm 27.3 SE 19 - 1005.3 - - - - - - - - -
30/12:30pm 27.4 SE 21 23 1005.4 - - - - - - - - -
30/12:00pm 27.3 SE 19 23 1006.0 - - - - - - - - -
30/11:30am 27.2 SE 20 22 1006.1 - - - - - - - - -
30/11:00am 27.3 ESE 21 25 1006.4 - - - - - - - - -
30/10:30am 27.1 ESE 21 25 1006.2 - - - - - - - - -
30/10:00am 27.0 ESE 21 25 1006.5 - - - - - - - - -
30/09:30am 27.0 ESE 22 25 1006.5 - - - - - - - - -
30/09:00am 27.2 SE 22 25 1006.5 - - - - - - - - -
30/08:30am 26.9 SE 23 26 1006.4 - - - - - - - - -
30/08:00am 26.9 SE 23 27 1006.4 - - - - - - - - -
30/07:30am 26.7 SE 23 27 1006.3 - - - - - - - - -
30/07:00am 26.7 ESE 24 28 1006.0 - - - - - - - - -
30/06:30am 26.6 SE 24 27 1005.7 - - - - - - - - -
30/06:00am 26.4 SE 23 27 1005.5 - - - - - - - - -
30/05:30am 26.3 SE 20 23 1005.1 - - - - - - - - -
30/05:00am 26.1 ESE 22 26 1005.0 - - - - - - - - -
30/04:30am 26.5 ESE 19 22 1004.7 - - - - - - - - -
30/04:00am 26.6 ESE 20 23 1004.9 - - - - - - - - -
30/03:30am 26.4 ESE 21 23 1004.6 - - - - - - - - -
30/03:00am 26.2 ESE 22 26 1004.6 - - - - - - - - -
30/02:30am 26.3 SE 21 25 1004.8 - - - - - - - - -
30/02:00am 26.3 SE 21 24 1005.0 - - - - - - - - -
30/01:30am 26.4 SE 20 24 1005.1 - - - - - - - - -
30/01:00am 26.5 SE 22 25 1005.3 - - - - - - - - -
30/12:30am 26.1 SE 22 25 1005.6 - - - - - - - - -
30/12:00am 26.3 SE 21 25 1006.1 - - - - - - - - -
 
Date/Time
EST
Temp

°C
Wind Pressure Rain
since 9am
mm
Weather Cloud Vis
km
Sea
Height
m
Swell
Dir
 
Speed
knots
Gust
knots
hPa Trend Height
m
Period
s
Dir
29/11:30pm 26.3 SE 20 24 1006.2 - - - - - - - - -
29/11:00pm 26.4 SE 21 24 1006.4 - - - - - - - - -
29/10:30pm 26.7 SE 21 24 1006.5 - - - - - - - - -
29/10:00pm 26.7 SE 21 25 1006.7 - - - - - - - - -
29/09:30pm 26.8 SE 21 24 1006.6 - - - - - - - - -
29/09:00pm 26.8 SE 23 26 1006.3 - - - - - - - - -
29/08:30pm 27.0 SE 22 25 1006.0 - - - - - - - - -
29/08:00pm 27.0 SE 21 25 1006.0 - - - - - - - - -
29/07:30pm 27.0 SE 23 27 1005.7 - - - - - - - - -
29/07:00pm 26.9 SE 22 26 1005.6 - - - - - - - - -
29/06:30pm 26.9 SE 22 26 1005.1 - - - - - - - - -
29/06:00pm 27.0 SE 24 27 1004.7 - - - - - - - - -
29/05:30pm 27.1 SE 22 26 1004.1 - - - - - - - - -
29/05:00pm 27.1 SE 22 27 1003.8 - - - - - - - - -
29/04:30pm 27.1 SE 22 25 1003.2 - - - - - - - - -
29/04:00pm 27.4 SE 21 24 1003.3 - - - - - - - - -
29/03:30pm 27.5 SE 21 23 1003.0 - - - - - - - - -
29/03:00pm 27.6 SE 22 25 1003.2 - - - - - - - - -
29/02:30pm 27.5 SE 20 23 1003.4 - - - - - - - - -
29/02:00pm 27.4 SE 19 22 1003.7 - - - - - - - - -
29/01:30pm 27.7 SE 18 21 1003.7 - - - - - - - - -
29/01:00pm 27.9 SE 18 21 1004.0 - - - - - - - - -
29/12:30pm 27.4 SE 19 21 1004.3 - - - - - - - - -
29/12:00pm 27.6 SE 19 22 1004.7 - - - - - - - - -
29/11:30am 27.7 SE 20 22 1004.3 - - - - - - - - -
29/11:00am 27.6 SE 20 23 1004.5 - - - - - - - - -
29/10:30am 27.5 SE 20 24 1004.5 - - - - - - - - -
29/10:00am 27.4 SE 20 23 1004.6 - - - - - - - - -
29/09:30am 27.4 SE 18 22 1004.7 - - - - - - - - -
29/09:00am 27.1 SSE 19 22 1004.6 - - - - - - - - -
29/08:30am 27.0 SE 21 24 1004.3 - - - - - - - - -
29/08:00am 26.8 SE 18 22 1004.4 - - - - - - - - -
29/07:30am 27.3 SE 18 21 1004.0 - - - - - - - - -
29/07:00am 26.8 SE 19 22 1004.1 - - - - - - - - -
29/06:30am 26.8 SE 17 19 1003.8 - - - - - - - - -
29/06:00am 26.9 SE 18 21 1003.7 - - - - - - - - -
29/05:30am 26.6 SE 16 18 1003.3 - - - - - - - - -
29/05:00am 26.6 SE 12 15 1003.0 - - - - - - - - -
29/04:30am 26.4 SE 11 13 1002.6 - - - - - - - - -
29/04:00am 26.4 ESE 11 14 1002.5 - - - - - - - - -
29/03:30am 26.4 SE 11 13 1002.4 - - - - - - - - -
29/03:00am 26.4 SE 10 12 1002.9 - - - - - - - - -
29/02:30am 26.4 SE 11 13 1002.9 - - - - - - - - -
29/02:00am 26.4 SE 11 14 1003.0 - - - - - - - - -
29/01:30am 26.5 SE 13 14 1002.7 - - - - - - - - -
29/01:00am 26.4 SE 12 14 1003.1 - - - - - - - - -
29/12:30am 26.3 SE 12 14 1003.3 - - - - - - - - -
29/12:00am 26.4 SE 13 15 1003.5 - - - - - - - - -
 
Date/Time
EST
Temp

°C
Wind Pressure Rain
since 9am
mm
Weather Cloud Vis
km
Sea
Height
m
Swell
Dir
 
Speed
knots
Gust
knots
hPa Trend Height
m
Period
s
Dir
28/11:30pm 26.4 SE 12 15 1003.7 - - - - - - - - -
28/11:00pm 26.4 ESE 13 15 1004.1 - - - - - - - - -
28/10:30pm 26.5 SE 13 15 1004.2 - - - - - - - - -
28/10:00pm 26.5 SE 15 18 1004.3 - - - - - - - - -
28/09:30pm 26.7 SE 15 18 1004.2 - - - - - - - - -
28/09:00pm 26.6 SE 16 18 1004.2 - - - - - - - - -
28/08:30pm 26.7 SE 15 18 1003.8 - - - - - - - - -
28/08:00pm 26.6 SE 16 19 1003.8 - - - - - - - - -
28/07:30pm 26.7 SE 15 17 1003.7 - - - - - - - - -
28/07:00pm 26.7 SE 16 19 1003.4 - - - - - - - - -
28/06:30pm 26.6 SE 15 17 1003.3 - - - - - - - - -
28/06:00pm 26.7 SE 16 18 1003.0 - - - - - - - - -
28/05:30pm 26.7 SE 16 19 1002.5 - - - - - - - - -
28/05:00pm 26.8 SE 17 19 1002.0 - - - - - - - - -
28/04:30pm 27.1 SE 16 19 1001.8 - - - - - - - - -
28/04:00pm 27.0 SE 17 20 1001.6 - - - - - - - - -
28/03:30pm 27.3 SE 17 19 1001.3 - - - - - - - - -
28/03:00pm 27.2 SE 17 20 1001.5 - - - - - - - - -
28/02:30pm 27.3 SE 16 19 1001.7 - - - - - - - - -
28/02:00pm 27.4 SE 15 17 1002.0 - - - - - - - - -
28/01:30pm 27.5 SSE 15 18 1001.9 - - - - - - - - -
28/01:00pm 27.4 SE 15 17 1002.3 - - - - - - - - -
28/12:30pm 27.7 SE 16 18 1002.4 - - - - - - - - -
28/12:00pm 27.8 SE 15 - 1002.7 - - - - - - - - -
28/11:30am 27.7 SE 15 17 1002.7 - - - - - - - - -
28/11:00am 27.6 SE 16 - 1002.8 - - - - - - - - -
28/10:30am 27.5 SSE 14 16 1003.0 - - - - - - - - -
28/10:00am 27.8 SSE 13 14 1003.3 - - - - - - - - -
28/09:30am 27.4 SSE 14 16 1003.3 - - - - - - - - -
28/09:00am 27.2 SE 16 19 1002.9 - - - - - - - - -
28/08:30am 27.2 SE 15 18 1002.9 - - - - - - - - -
28/08:28am 27.3 SE 15 17 1002.9 - - - - - - - - -
28/08:00am 27.2 SSE 2 6 1003.1 - - - - - - - - -
28/07:30am 27.1 SSE 11 13 1002.7 - - - - - - - - -
28/07:00am 27.0 SSE 12 14 1002.7 - - - - - - - - -
28/06:30am 26.9 SSE 14 15 1002.2 - - - - - - - - -
28/06:00am 26.5 SSE 14 16 1002.0 - - - - - - - - -
28/05:30am 26.2 SSE 13 16 1001.6 - - - - - - - - -
28/05:00am 26.2 SE 13 14 1001.6 - - - - - - - - -
28/04:30am 26.2 SE 12 15 1001.5 - - - - - - - - -
28/04:00am 26.2 SE 13 15 1001.8 - - - - - - - - -
28/03:30am 26.3 SE 14 16 1001.4 - - - - - - - - -
28/03:00am 26.3 SE 14 16 1001.6 - - - - - - - - -
28/02:30am 26.3 SE 15 17 1001.7 - - - - - - - - -
28/02:00am 26.4 SE 13 16 1001.9 - - - - - - - - -
28/01:30am 26.4 SE 14 16 1002.0 - - - - - - - - -
28/01:00am 26.5 SE 15 17 1002.1 - - - - - - - - -
28/12:30am 26.5 SE 15 16 1002.3 - - - - - - - - -

Other Formats:

Comma delimited format used in spreadsheet applications
http://www.bom.gov.au/fwo/IDQ60701/IDQ60701.94394.axf

JavaScript Object Notation format (JSON) in row-major order
http://www.bom.gov.au/fwo/IDQ60701/IDQ60701.94394.json